首页
METAR-TAF:

METAR-TAF

机场 :

威靈頓國際機場

惠灵顿, 新西兰

纬度: 41-20S, 经度: 174-48E, 海拔: 12米

当前天气观测

该预报发布于27分钟前的05:00 UTC
风速20节,风向
温度 16°C
湿度 59%
气压 1025 hPa
能见度10公里或以上

METAR: NZWN 190500Z AUTO 01020KT 9999 NCD 16/08 Q1025 NOSIG

时间: 18:27 (05:27 UTC)

预报

该预报发布于4小时和1分钟前的01:26 UTC
预报有效从19日的 01点(UTC)到 20日的 00点(UTC)
风速20节,风向,有时为30节阵风
能见度10公里或以上
1500米以下无云,无积雨云
成为
从 19日的 10点(UTC)到 19日的 12点(UTC)
风速15节,风向
短暂存在
从 19日的 16点(UTC)到 19日的 21点(UTC)
多云层高于1000英尺
成为
从 19日的 21点(UTC)到 19日的 23点(UTC)
风速20节,风向,有时为30节阵风

TAF: NZWN 190126Z 1901/2000 36020G30KT CAVOK BECMG 1910/1912 36015KT TEMPO 1916/1921 BKN010 BECMG 1921/1923 36020G30KT

超过4000个机场的气象观测和天气预报(METAR&TAF报告)。

可查询的气象台以黄色和红色小点在地图上表示。

将鼠标移到小点上方,可查看气象台名称。

然后点击查看天气观测和预报。

如需切换地图:点击带黑十字的绿色按钮放大地图;点击带横线的绿色按钮缩小地图;或者点击绿色箭头查看邻近地区的地图。


METAR-TAF: